KPWM/PWM METAR and TAF weather

Enter ICAO airport designator
Station Type Date Time Source
KPWM METAR 2019/09/20 19:51 UTC NOAA

KPWM 201951Z 33007KT 10SM FEW120 SCT250 27/11 A3005 RMK AO2 SLP176 T02720111


Station Type Date Time Source
KPWM Decoded METAR 2019/09/20 19:51 UTC NOAA

PORTLAND INTERNATIONAL JETPORT, ME, United States (KPWM) 43-39N 70-18W 15M
Sep 20, 2019 - 03:51 PM EDT / 2019.09.20 1951 UTC
Wind: from the NNW (330 degrees) at 8 MPH (7 KT):0
Visibility: 10 mile(s):0
Sky conditions: partly cloudy
Temperature: 81.0 F (27.2 C)
Dew Point: 52.0 F (11.1 C)
Relative Humidity: 36%
Pressure (altimeter): 30.05 in. Hg (1017 hPa)
ob: KPWM 201951Z 33007KT 10SM FEW120 SCT250 27/11 A3005 RMK AO2 SLP176 T02720111
cycle: 20

Station Type Date Time Source
KPWM TAF 2019/09/20 18:22 UTC NOAA

TAF KPWM 201720Z 2018/2118 31006KT P6SM FEW250

Example: see airport list